Time;durP1;ratioP1;P1;durP2;ratioP2;P2;SDS_P1;SDS_P2;PMS_P1;PMS_P2;Temp;Humidity;BMP_temperature;BMP_pressure;BME280_temperature;BME280_humidity;BME280_pressure;Samples;Min_cycle;Max_cycle;Signal;HPM_P1;HPM_P2
2023/02/27 00:00:53;;;;;;;;;;;;;;;21.16;36.75;100390.09;106363;1282;62074;-80
2023/02/27 00:03:19;;;;;;;;;;;;;;;21.16;36.70;100389.02;106156;1283;73072;-80
2023/02/27 00:05:44;;;;;;;;;;;;;;;21.16;36.74;100387.77;106137;1283;62111;-80
2023/02/27 00:08:10;;;;;;;;;;;;;;;21.16;36.78;100396.36;106284;1282;62041;-80
2023/02/27 00:10:35;;;;;;;;;;;;;;;21.16;36.71;100398.35;106187;1282;62061;-80
2023/02/27 00:13:01;;;;;;;;;;;;;;;21.16;36.71;100393.34;106301;1285;62029;-80
2023/02/27 00:15:29;;;;;;;;;;;;;;;21.16;36.69;100386.22;106122;1283;72474;-80
2023/02/27 00:17:55;;;;;;;;;;;;;;;21.16;36.84;100389.77;106299;1282;75892;-80
2023/02/27 00:20:21;;;;;;;;;;;;;;;21.16;36.70;100397.47;106167;1282;62190;-80
2023/02/27 00:22:46;;;;;;;;;;;;;;;21.15;36.72;100400.02;106235;1283;62063;-80
2023/02/27 00:25:12;;;;;;;;;;;;;;;21.15;36.68;100397.34;106258;1285;62172;-80
2023/02/27 00:27:37;;;;;;;;;;;;;;;21.15;36.76;100394.65;106260;1282;62043;-80
2023/02/27 00:30:04;;;;;;;;;;;;;;;21.15;36.60;100392.86;106132;1282;75275;-80
2023/02/27 00:32:29;;;;;;;;;;;;;;;21.15;36.65;100407.02;106262;1283;62097;-80
2023/02/27 00:34:55;;;;;;;;;;;;;;;21.15;36.68;100414.70;106273;1282;62168;-80
2023/02/27 00:37:20;;;;;;;;;;;;;;;21.15;36.55;100404.48;106294;1282;62271;-80
2023/02/27 00:39:46;;;;;;;;;;;;;;;21.15;36.69;100391.62;106144;1283;62159;-80
2023/02/27 00:42:11;;;;;;;;;;;;;;;21.15;36.55;100392.89;106189;1282;62142;-80
2023/02/27 00:44:37;;;;;;;;;;;;;;;21.14;36.48;100395.79;106193;1282;60687;-80
2023/02/27 00:47:03;;;;;;;;;;;;;;;21.15;36.66;100401.29;106142;1282;62184;-80
2023/02/27 00:49:28;;;;;;;;;;;;;;;21.15;36.65;100400.75;106230;1283;62178;-80
2023/02/27 00:51:54;;;;;;;;;;;;;;;21.15;36.46;100402.36;106165;1287;62873;-80
2023/02/27 00:54:19;;;;;;;;;;;;;;;21.15;36.56;100406.49;106142;1283;62051;-80
2023/02/27 00:56:45;;;;;;;;;;;;;;;21.15;36.47;100413.47;106157;1287;62091;-80
2023/02/27 00:59:10;;;;;;;;;;;;;;;21.15;36.57;100414.02;106271;1283;62065;-80
2023/02/27 01:01:36;;;;;;;;;;;;;;;21.15;36.59;100417.21;106172;1282;62082;-80
2023/02/27 01:04:02;;;;;;;;;;;;;;;21.15;36.42;100425.65;106175;1283;62195;-80
2023/02/27 01:06:27;;;;;;;;;;;;;;;21.15;36.59;100425.29;106338;1283;60773;-80
2023/02/27 01:08:54;;;;;;;;;;;;;;;21.15;36.56;100414.37;106102;1285;62088;-80
2023/02/27 01:11:20;;;;;;;;;;;;;;;21.15;36.43;100403.62;106160;1283;62047;-80
2023/02/27 01:13:46;;;;;;;;;;;;;;;21.14;36.57;100391.48;106283;1283;62283;-80
2023/02/27 01:16:12;;;;;;;;;;;;;;;21.15;36.61;100388.58;106224;1285;62067;-80
2023/02/27 01:18:37;;;;;;;;;;;;;;;21.15;36.45;100395.22;106019;1282;62065;-80
2023/02/27 01:21:03;;;;;;;;;;;;;;;21.15;36.53;100388.61;106263;1283;62161;-80
2023/02/27 01:23:28;;;;;;;;;;;;;;;21.14;36.49;100383.64;106283;1283;63098;-81
2023/02/27 01:25:54;;;;;;;;;;;;;;;21.14;36.36;100390.42;106231;1282;72259;-80
2023/02/27 01:28:20;;;;;;;;;;;;;;;21.14;36.34;100390.78;106248;1282;62102;-80
2023/02/27 01:30:45;;;;;;;;;;;;;;;21.14;36.49;100392.07;106271;1283;62098;-79
2023/02/27 01:33:11;;;;;;;;;;;;;;;21.14;36.53;100397.27;106159;1283;62082;-80
2023/02/27 01:35:36;;;;;;;;;;;;;;;21.14;36.36;100414.62;106151;1283;62139;-80
2023/02/27 01:38:02;;;;;;;;;;;;;;;21.14;36.39;100415.15;106175;1283;62081;-80
2023/02/27 01:40:27;;;;;;;;;;;;;;;21.14;36.33;100422.46;106160;1282;60192;-80
2023/02/27 01:42:53;;;;;;;;;;;;;;;21.14;36.44;100416.74;106256;1283;62071;-80
2023/02/27 01:45:34;;;;;;;;;;;;;;;21.15;36.51;100414.91;106266;1282;62146;-80
2023/02/27 01:48:06;;;;;;;;;;;;;;;21.15;36.30;100417.42;106228;1282;72502;-80
2023/02/27 01:50:32;;;;;;;;;;;;;;;21.14;36.39;100411.38;106243;1282;76394;-80
2023/02/27 01:52:59;;;;;;;;;;;;;;;21.14;36.35;100412.64;106256;1282;62096;-80
2023/02/27 01:55:24;;;;;;;;;;;;;;;21.14;36.32;100416.91;106284;1282;62076;-80
2023/02/27 01:57:50;;;;;;;;;;;;;;;21.14;36.43;100428.02;106137;1282;62037;-80
2023/02/27 02:00:16;;;;;;;;;;;;;;;21.14;36.33;100431.08;106259;1282;62085;-80
2023/02/27 02:02:43;;;;;;;;;;;;;;;21.14;36.22;100433.56;106151;1282;62047;-80
2023/02/27 02:05:09;;;;;;;;;;;;;;;21.14;36.41;100431.24;106271;1285;62060;-80
2023/02/27 02:07:34;;;;;;;;;;;;;;;21.14;36.39;100437.52;106202;1288;62222;-80
2023/02/27 02:10:00;;;;;;;;;;;;;;;21.13;36.18;100431.11;106285;1283;62097;-80
2023/02/27 02:12:26;;;;;;;;;;;;;;;21.13;36.30;100431.27;106143;1282;74605;-80
2023/02/27 02:14:52;;;;;;;;;;;;;;;21.13;36.25;100433.42;106173;1282;62161;-80
2023/02/27 02:17:20;;;;;;;;;;;;;;;21.14;36.31;100431.45;106283;1282;62168;-80
2023/02/27 02:20:06;;;;;;;;;;;;;;;21.14;36.18;100436.11;106259;1282;73399;-80
2023/02/27 02:23:10;;;;;;;;;;;;;;;21.13;36.33;100440.27;106097;1282;76316;-80
2023/02/27 02:25:57;;;;;;;;;;;;;;;21.13;36.26;100450.63;105586;1289;62060;-80
2023/02/27 02:28:30;;;;;;;;;;;;;;;21.13;36.27;100456.70;105082;1294;61986;-80
2023/02/27 02:31:25;;;;;;;;;;;;;;;21.13;36.17;100450.42;105293;1290;73499;-80
2023/02/27 02:33:54;;;;;;;;;;;;;;;21.13;36.36;100454.56;105305;1290;74428;-80
2023/02/27 02:36:22;;;;;;;;;;;;;;;21.14;36.24;100454.19;105405;1291;61975;-80
2023/02/27 02:39:06;;;;;;;;;;;;;;;21.13;36.17;100446.31;105388;1291;61945;-80
2023/02/27 02:41:32;;;;;;;;;;;;;;;21.14;36.20;100439.30;105378;1290;71565;-80
2023/02/27 02:44:00;;;;;;;;;;;;;;;21.13;36.21;100440.45;105376;1292;62259;-80
2023/02/27 02:46:26;;;;;;;;;;;;;;;21.13;36.28;100438.98;105408;1289;60850;-80
2023/02/27 02:48:53;;;;;;;;;;;;;;;21.13;36.32;100451.52;105295;1290;62257;-80
2023/02/27 02:51:22;;;;;;;;;;;;;;;21.13;36.22;100458.13;105315;1290;62355;-80
2023/02/27 02:54:07;;;;;;;;;;;;;;;21.13;36.27;100448.48;105354;1291;75452;-80
2023/02/27 02:56:32;;;;;;;;;;;;;;;21.13;36.34;100444.56;105358;1289;62018;-80
2023/02/27 02:59:16;;;;;;;;;;;;;;;21.13;36.30;100448.35;105376;1291;62147;-80
2023/02/27 03:01:43;;;;;;;;;;;;;;;21.13;36.32;100457.27;105392;1294;72812;-80
2023/02/27 03:04:13;;;;;;;;;;;;;;;21.13;36.18;100465.30;105351;1291;76353;-80
2023/02/27 03:06:49;;;;;;;;;;;;;;;21.13;36.08;100459.64;106012;1283;62036;-80
2023/02/27 03:09:24;;;;;;;;;;;;;;;21.13;36.23;100455.68;106198;1283;61993;-80
2023/02/27 03:11:50;;;;;;;;;;;;;;;21.12;36.11;100457.48;106282;1283;72310;-80
2023/02/27 03:14:35;;;;;;;;;;;;;;;21.13;36.13;100464.30;106265;1282;62036;-80
2023/02/27 03:17:03;;;;;;;;;;;;;;;21.12;36.12;100462.85;106295;1283;61414;-80
2023/02/27 03:19:30;;;;;;;;;;;;;;;21.13;36.10;100457.99;106149;1283;62049;-80
2023/02/27 03:22:00;;;;;;;;;;;;;;;21.13;36.13;100462.49;106253;1283;72766;-80
2023/02/27 03:24:27;;;;;;;;;;;;;;;21.13;36.10;100464.43;106281;1283;76305;-80
2023/02/27 03:26:53;;;;;;;;;;;;;;;21.13;35.98;100466.95;106199;1282;62162;-80
2023/02/27 03:29:38;;;;;;;;;;;;;;;21.13;36.19;100461.05;106243;1283;60859;-80
2023/02/27 03:32:10;;;;;;;;;;;;;;;21.13;36.10;100465.66;106194;1284;72206;-80
2023/02/27 03:34:36;;;;;;;;;;;;;;;21.13;35.99;100462.10;106156;1283;75659;-80
2023/02/27 03:37:20;;;;;;;;;;;;;;;21.13;36.01;100463.00;106171;1288;62117;-80
2023/02/27 03:39:48;;;;;;;;;;;;;;;21.13;35.93;100457.80;106195;1283;61916;-80
2023/02/27 03:42:25;;;;;;;;;;;;;;;21.13;36.10;100458.17;106124;1283;72776;-80
2023/02/27 03:45:10;;;;;;;;;;;;;;;21.13;36.18;100455.85;106089;1283;76258;-80
2023/02/27 03:47:35;;;;;;;;;;;;;;;21.13;36.11;100463.36;106240;1285;61958;-80
2023/02/27 03:50:01;;;;;;;;;;;;;;;21.13;36.09;100462.13;105991;1283;62254;-80
2023/02/27 03:52:26;;;;;;;;;;;;;;;21.12;36.07;100460.33;106259;1282;62178;-80
2023/02/27 03:54:54;;;;;;;;;;;;;;;21.12;36.01;100460.17;106172;1283;62084;-80
2023/02/27 03:57:19;;;;;;;;;;;;;;;21.12;36.09;100467.88;106163;1284;62289;-80
2023/02/27 03:59:45;;;;;;;;;;;;;;;21.12;35.91;100465.22;106141;1283;62088;-80
2023/02/27 04:02:10;;;;;;;;;;;;;;;21.12;36.00;100470.02;106197;1283;62190;-80
2023/02/27 04:04:36;;;;;;;;;;;;;;;21.12;36.02;100480.05;106246;1285;72525;-80
2023/02/27 04:07:22;;;;;;;;;;;;;;;21.12;36.11;100488.14;106244;1284;62754;-80
2023/02/27 04:10:06;;;;;;;;;;;;;;;21.12;35.91;100487.80;106148;1283;61864;-80
2023/02/27 04:12:35;;;;;;;;;;;;;;;21.12;35.94;100489.94;106261;1282;61980;-80
2023/02/27 04:15:20;;;;;;;;;;;;;;;21.12;35.97;100500.67;106232;1283;72606;-80
2023/02/27 04:17:55;;;;;;;;;;;;;;;21.12;35.87;100520.73;106249;1283;75140;-80
2023/02/27 04:20:32;;;;;;;;;;;;;;;21.11;35.87;100544.56;106147;1283;62069;-80
2023/02/27 04:23:07;;;;;;;;;;;;;;;21.11;35.90;100552.63;106216;1288;60876;-80
2023/02/27 04:25:36;;;;;;;;;;;;;;;21.11;35.85;100566.76;106224;1285;71591;-80
2023/02/27 04:28:01;;;;;;;;;;;;;;;21.11;35.87;100569.61;106282;1283;76306;-80
2023/02/27 04:30:37;;;;;;;;;;;;;;;21.11;35.99;100566.58;106268;1283;62250;-80
2023/02/27 04:33:06;;;;;;;;;;;;;;;21.11;35.94;100565.65;106231;1282;61231;-80
2023/02/27 04:35:41;;;;;;;;;;;;;;;21.11;35.96;100564.59;106266;1283;72568;-80
2023/02/27 04:38:33;;;;;;;;;;;;;;;21.12;35.81;100572.08;106145;1283;76465;-80
2023/02/27 04:41:02;;;;;;;;;;;;;;;21.10;35.84;100569.85;106230;1284;61916;-80
2023/02/27 04:43:28;;;;;;;;;;;;;;;21.10;35.78;100579.14;106267;1282;62174;-80
2023/02/27 04:45:54;;;;;;;;;;;;;;;21.10;35.78;100585.02;106249;1286;61926;-80
2023/02/27 04:48:43;;;;;;;;;;;;;;;21.10;35.99;100577.36;106143;1281;62085;-80
2023/02/27 04:51:10;;;;;;;;;;;;;;;21.10;35.91;100570.38;106192;1282;60482;-80
2023/02/27 04:53:55;;;;;;;;;;;;;;;21.09;35.77;100572.57;106134;1283;62137;-80
2023/02/27 04:56:26;;;;;;;;;;;;;;;21.09;35.69;100577.39;106251;1285;73502;-80
2023/02/27 04:58:53;;;;;;;;;;;;;;;21.10;35.70;100574.36;106136;1282;76186;-80
2023/02/27 05:01:30;;;;;;;;;;;;;;;21.09;35.72;100574.59;106165;1283;62044;-80
2023/02/27 05:03:56;;;;;;;;;;;;;;;21.09;35.73;100564.38;106271;1284;61964;-80
2023/02/27 05:06:22;;;;;;;;;;;;;;;21.08;35.63;100570.70;106373;1283;62065;-80
2023/02/27 05:09:07;;;;;;;;;;;;;;;21.08;35.68;100576.98;106144;1283;62126;-80
2023/02/27 05:11:38;;;;;;;;;;;;;;;21.08;35.63;100578.79;106132;1282;61950;-80
2023/02/27 05:14:07;;;;;;;;;;;;;;;21.08;35.62;100580.40;106152;1283;62054;-80
2023/02/27 05:16:32;;;;;;;;;;;;;;;21.07;35.59;100580.98;106266;1283;72352;-80
2023/02/27 05:18:58;;;;;;;;;;;;;;;21.06;35.53;100561.92;106255;1283;62063;-80
2023/02/27 05:21:38;;;;;;;;;;;;;;;21.05;35.60;100538.59;106298;1283;62014;-80
2023/02/27 05:24:04;;;;;;;;;;;;;;;21.03;35.61;100542.44;106255;1282;62075;-81
2023/02/27 05:26:29;;;;;;;;;;;;;;;21.02;35.42;100563.44;106245;1282;62049;-81
2023/02/27 05:28:58;;;;;;;;;;;;;;;21.02;35.52;100582.13;106288;1282;62081;-80
2023/02/27 05:31:28;;;;;;;;;;;;;;;21.00;35.59;100586.34;106277;1283;61954;-80
2023/02/27 05:33:59;;;;;;;;;;;;;;;20.98;35.53;100595.77;106214;1282;61913;-81
2023/02/27 05:36:30;;;;;;;;;;;;;;;20.96;35.47;100603.30;106128;1282;73389;-80
2023/02/27 05:38:57;;;;;;;;;;;;;;;20.92;35.43;100606.40;106310;1282;75292;-81
2023/02/27 05:41:24;;;;;;;;;;;;;;;20.91;35.54;100607.91;106198;1288;61892;-81
2023/02/27 05:43:55;;;;;;;;;;;;;;;20.87;35.50;100618.41;106173;1282;61508;-81
2023/02/27 05:46:22;;;;;;;;;;;;;;;20.83;35.61;100614.05;106307;1283;73620;-82
2023/02/27 05:48:52;;;;;;;;;;;;;;;20.78;35.62;100594.41;106155;1285;75819;-81
2023/02/27 05:51:18;;;;;;;;;;;;;;;20.73;35.68;100594.56;106244;1282;60571;-82
2023/02/27 05:53:45;;;;;;;;;;;;;;;20.70;35.65;100606.96;106222;1286;62085;-81
2023/02/27 05:56:11;;;;;;;;;;;;;;;20.67;35.69;100610.38;106154;1286;73493;-82
2023/02/27 05:58:41;;;;;;;;;;;;;;;20.63;35.77;100605.81;105960;1283;60412;-81
2023/02/27 06:01:07;;;;;;;;;;;;;;;20.59;35.77;100605.05;106115;1283;62130;-81
2023/02/27 06:03:33;;;;;;;;;;;;;;;20.46;35.74;100622.25;106140;1287;61149;-81
2023/02/27 06:05:59;;;;;;;;;;;;;;;20.37;35.75;100648.48;106098;1283;60929;-81
2023/02/27 06:08:25;;;;;;;;;;;;;;;20.28;35.73;100658.72;106223;1284;62350;-81
2023/02/27 06:10:50;;;;;;;;;;;;;;;20.27;35.84;100681.27;106304;1282;61995;-81
2023/02/27 06:13:16;;;;;;;;;;;;;;;20.28;36.06;100702.51;106242;1283;60232;-82
2023/02/27 06:15:45;;;;;;;;;;;;;;;20.30;35.95;100718.25;106254;1285;63508;-81
2023/02/27 06:18:11;;;;;;;;;;;;;;;20.32;36.10;100736.54;106127;1283;62020;-81
2023/02/27 06:20:36;;;;;;;;;;;;;;;20.34;35.89;100758.38;106277;1282;60219;-81
2023/02/27 06:23:02;;;;;;;;;;;;;;;20.37;36.13;100766.73;106249;1282;60756;-81
2023/02/27 06:25:27;;;;;;;;;;;;;;;20.41;36.11;100781.33;106228;1283;60831;-81
2023/02/27 06:27:53;;;;;;;;;;;;;;;20.45;36.05;100804.64;106227;1286;62003;-81
2023/02/27 06:30:18;;;;;;;;;;;;;;;20.50;35.89;100835.98;106281;1282;62095;-81
2023/02/27 06:32:44;;;;;;;;;;;;;;;20.54;36.06;100860.73;105915;1285;62018;-81
2023/02/27 06:35:09;;;;;;;;;;;;;;;20.58;35.94;100866.88;105998;1284;62263;-81
2023/02/27 06:37:35;;;;;;;;;;;;;;;20.62;36.07;100864.84;106021;1285;61665;-81
2023/02/27 06:40:01;;;;;;;;;;;;;;;20.65;36.17;100869.27;105767;1285;72690;-81
2023/02/27 06:42:26;;;;;;;;;;;;;;;20.68;36.00;100883.00;105820;1286;60245;-81
2023/02/27 06:44:52;;;;;;;;;;;;;;;20.71;36.26;100875.86;105788;1286;62125;-81
2023/02/27 06:47:17;;;;;;;;;;;;;;;20.73;36.28;100865.17;105998;1285;62165;-81
2023/02/27 06:49:43;;;;;;;;;;;;;;;20.75;36.36;100863.56;105853;1285;60513;-81
2023/02/27 06:52:08;;;;;;;;;;;;;;;20.77;36.27;100858.43;105770;1288;61134;-81
2023/02/27 06:54:34;;;;;;;;;;;;;;;20.80;36.32;100864.38;105657;1288;60488;-81
2023/02/27 06:56:59;;;;;;;;;;;;;;;20.81;36.30;100865.55;105912;1286;62187;-81
2023/02/27 06:59:25;;;;;;;;;;;;;;;20.83;36.52;100867.86;105734;1289;60223;-82
2023/02/27 07:01:50;;;;;;;;;;;;;;;20.85;36.65;100866.27;105063;1286;1005256;-81
2023/02/27 07:04:16;;;;;;;;;;;;;;;20.85;36.74;100873.26;105995;1283;72564;-81
2023/02/27 07:06:41;;;;;;;;;;;;;;;20.86;36.72;100876.43;106070;1283;62160;-80
2023/02/27 07:09:07;;;;;;;;;;;;;;;20.88;36.86;100883.81;106169;1285;61013;-81
2023/02/27 07:11:32;;;;;;;;;;;;;;;20.90;36.85;100889.55;106174;1285;61969;-81
2023/02/27 07:13:58;;;;;;;;;;;;;;;20.91;36.84;100885.23;106239;1287;62019;-80
2023/02/27 07:16:23;;;;;;;;;;;;;;;20.92;36.74;100881.73;106117;1283;72558;-81
2023/02/27 07:18:49;;;;;;;;;;;;;;;20.93;36.78;100884.02;106319;1283;60515;-81
2023/02/27 07:21:14;;;;;;;;;;;;;;;20.94;36.71;100886.59;106315;1282;60296;-80
2023/02/27 07:23:40;;;;;;;;;;;;;;;20.96;36.51;100901.55;106284;1282;59824;-80
2023/02/27 07:26:06;;;;;;;;;;;;;;;20.97;36.68;100905.73;106249;1282;61813;-81
2023/02/27 07:28:31;;;;;;;;;;;;;;;20.99;36.69;100905.80;106053;1285;60504;-81
2023/02/27 07:30:57;;;;;;;;;;;;;;;20.99;36.64;100900.20;106257;1283;62239;-80
2023/02/27 07:33:22;;;;;;;;;;;;;;;21.00;36.58;100897.14;106244;1282;60479;-81
2023/02/27 07:35:48;;;;;;;;;;;;;;;21.01;36.63;100896.33;106256;1282;60969;-81
2023/02/27 07:38:13;;;;;;;;;;;;;;;21.02;36.71;100886.59;106101;1283;60568;-80
2023/02/27 07:40:39;;;;;;;;;;;;;;;21.03;36.68;100888.89;106263;1283;60219;-80
2023/02/27 07:43:04;;;;;;;;;;;;;;;21.04;36.68;100888.63;106147;1281;60240;-80
2023/02/27 07:45:30;;;;;;;;;;;;;;;21.04;36.69;100886.80;106209;1282;60703;-80
2023/02/27 07:47:55;;;;;;;;;;;;;;;21.06;36.66;100883.84;106264;1283;60232;-80
2023/02/27 07:50:21;;;;;;;;;;;;;;;21.06;36.62;100884.52;106115;1282;62559;-81
2023/02/27 07:52:46;;;;;;;;;;;;;;;21.07;36.72;100891.24;106196;1282;61975;-82
2023/02/27 07:55:12;;;;;;;;;;;;;;;21.07;36.69;100895.59;106214;1282;60473;-80
2023/02/27 07:57:37;;;;;;;;;;;;;;;21.01;36.89;100899.39;106100;1283;60766;-80
2023/02/27 08:00:05;;;;;;;;;;;;;;;20.95;36.90;100907.31;106076;1283;60407;-83
2023/02/27 08:02:31;;;;;;;;;;;;;;;20.90;36.94;100899.06;106119;1282;62107;-81
2023/02/27 08:04:56;;;;;;;;;;;;;;;20.87;36.88;100880.15;106338;1281;61308;-80
2023/02/27 08:07:22;;;;;;;;;;;;;;;20.83;37.10;100863.75;106285;1281;61285;-82
2023/02/27 08:09:47;;;;;;;;;;;;;;;20.80;36.93;100865.23;106110;1283;61779;-81
2023/02/27 08:12:13;;;;;;;;;;;;;;;20.78;36.94;100872.88;106162;1282;62076;-81
2023/02/27 08:14:38;;;;;;;;;;;;;;;20.78;36.87;100876.84;106101;1283;61938;-80
2023/02/27 08:17:04;;;;;;;;;;;;;;;20.78;36.95;100883.61;106081;1281;61986;-80
2023/02/27 08:19:29;;;;;;;;;;;;;;;20.78;36.79;100892.02;106271;1285;61160;-80
2023/02/27 08:21:55;;;;;;;;;;;;;;;20.80;36.99;100893.66;106267;1281;60380;-80
2023/02/27 08:24:20;;;;;;;;;;;;;;;20.83;36.99;100892.95;106238;1283;62014;-81
2023/02/27 08:26:46;;;;;;;;;;;;;;;20.85;37.05;100896.73;106283;1282;61986;-80
2023/02/27 08:29:11;;;;;;;;;;;;;;;20.87;36.93;100912.69;106324;1285;60990;-80
2023/02/27 08:31:37;;;;;;;;;;;;;;;20.90;36.89;100931.23;106127;1282;60420;-80
2023/02/27 08:34:02;;;;;;;;;;;;;;;20.91;36.82;100937.23;106208;1283;61972;-80
2023/02/27 08:36:28;;;;;;;;;;;;;;;20.94;36.91;100943.16;106219;1283;60764;-80
2023/02/27 08:38:53;;;;;;;;;;;;;;;20.96;36.79;100950.36;106198;1282;60364;-80
2023/02/27 08:41:19;;;;;;;;;;;;;;;20.98;36.76;100956.15;106215;1282;62174;-81
2023/02/27 08:43:44;;;;;;;;;;;;;;;21.00;36.74;100956.39;106121;1282;62098;-80
2023/02/27 08:46:10;;;;;;;;;;;;;;;21.01;36.80;100963.99;106271;1283;60264;-80
2023/02/27 08:48:35;;;;;;;;;;;;;;;21.02;36.67;100966.61;106128;1282;60367;-80
2023/02/27 08:51:00;;;;;;;;;;;;;;;21.02;36.69;100971.04;106064;1283;62172;-81
2023/02/27 08:53:27;;;;;;;;;;;;;;;21.04;36.81;100979.66;106131;1282;62142;-80
2023/02/27 08:55:53;;;;;;;;;;;;;;;21.04;36.72;100991.83;106069;1283;60277;-80
2023/02/27 08:58:18;;;;;;;;;;;;;;;21.04;36.65;100995.59;106218;1282;62100;-80
2023/02/27 09:00:44;;;;;;;;;;;;;;;21.05;36.65;100997.50;106176;1282;62030;-81
2023/02/27 09:03:10;;;;;;;;;;;;;;;21.05;36.66;101004.69;106124;1282;61581;-81
2023/02/27 09:05:36;;;;;;;;;;;;;;;20.94;36.43;101011.10;106559;1283;76537;-81
2023/02/27 09:08:03;;;;;;;;;;;;;;;20.80;36.57;101015.65;106383;1282;60473;-81
2023/02/27 09:10:29;;;;;;;;;;;;;;;20.70;36.76;101029.34;106105;1283;60828;-82
2023/02/27 09:12:54;;;;;;;;;;;;;;;20.61;36.77;101037.98;106142;1282;60503;-81
2023/02/27 09:15:20;;;;;;;;;;;;;;;20.52;36.87;101039.46;106264;1283;61874;-81
2023/02/27 09:17:45;;;;;;;;;;;;;;;20.49;37.10;101039.27;106339;1285;61347;-81
2023/02/27 09:20:11;;;;;;;;;;;;;;;20.49;37.20;101049.15;106235;1283;63545;-81
2023/02/27 09:22:37;;;;;;;;;;;;;;;20.48;37.00;101060.84;106169;1282;61843;-81
2023/02/27 09:25:02;;;;;;;;;;;;;;;20.47;36.93;101068.55;106110;1288;62121;-81
2023/02/27 09:27:28;;;;;;;;;;;;;;;20.46;36.93;101061.63;106260;1282;60831;-81
2023/02/27 09:29:55;;;;;;;;;;;;;;;20.46;36.85;101053.07;106237;1282;60101;-81
2023/02/27 09:32:23;;;;;;;;;;;;;;;20.46;36.81;101042.70;106256;1282;62130;-81
2023/02/27 09:34:49;;;;;;;;;;;;;;;20.45;36.88;101032.02;106182;1282;60394;-80
2023/02/27 09:37:15;;;;;;;;;;;;;;;20.45;36.87;101033.66;106093;1282;62008;-81
2023/02/27 09:39:41;;;;;;;;;;;;;;;20.45;36.86;101053.88;106284;1282;62065;-81
2023/02/27 09:42:10;;;;;;;;;;;;;;;20.44;37.04;101065.35;106197;1282;62060;-81
2023/02/27 09:44:43;;;;;;;;;;;;;;;20.43;36.94;101076.31;106142;1282;72211;-81
2023/02/27 09:47:20;;;;;;;;;;;;;;;20.43;37.12;101074.67;106243;1282;76270;-80
2023/02/27 09:49:48;;;;;;;;;;;;;;;20.44;37.10;101080.88;106152;1286;62345;-80
2023/02/27 09:52:14;;;;;;;;;;;;;;;20.47;37.06;101076.82;106091;1282;61177;-80
2023/02/27 09:54:39;;;;;;;;;;;;;;;20.49;36.99;101073.42;106166;1282;62081;-80
2023/02/27 09:57:05;;;;;;;;;;;;;;;20.53;37.20;101074.23;106168;1281;62020;-80
2023/02/27 10:00:03;;;;;;;;;;;;;;;20.58;37.06;101088.23;106267;1282;60564;-80
2023/02/27 10:02:32;;;;;;;;;;;;;;;20.63;37.21;101097.75;105740;1282;61767;-82
2023/02/27 10:05:09;;;;;;;;;;;;;;;20.62;37.35;101096.94;106131;1283;72703;-82
2023/02/27 10:07:41;;;;;;;;;;;;;;;20.54;37.43;101100.86;106149;1282;75937;-81
2023/02/27 10:10:07;;;;;;;;;;;;;;;20.47;37.38;101106.81;106095;1281;62174;-81
2023/02/27 10:12:38;;;;;;;;;;;;;;;20.41;37.70;101109.69;106272;1282;61317;-81
2023/02/27 10:15:10;;;;;;;;;;;;;;;20.38;37.67;101110.81;106213;1282;72487;-80
2023/02/27 10:17:38;;;;;;;;;;;;;;;20.37;37.69;101105.61;106289;1282;76581;-81
2023/02/27 10:20:07;;;;;;;;;;;;;;;20.39;37.78;101098.18;106689;1282;60006;-81
2023/02/27 10:22:34;;;;;;;;;;;;;;;20.41;37.84;101096.42;106622;1282;60585;-81
2023/02/27 10:25:01;;;;;;;;;;;;;;;20.43;37.72;101097.02;106670;1282;73443;-81
2023/02/27 10:27:28;;;;;;;;;;;;;;;20.45;37.81;101100.70;106501;1283;75292;-81
2023/02/27 10:29:55;;;;;;;;;;;;;;;20.45;37.89;101099.99;106111;1282;62180;-81
2023/02/27 10:32:26;;;;;;;;;;;;;;;20.46;37.97;101107.44;106060;1283;60187;-81
2023/02/27 10:35:14;;;;;;;;;;;;;;;20.47;37.87;101120.06;106181;1282;73059;-83
2023/02/27 10:37:42;;;;;;;;;;;;;;;20.49;37.84;101131.02;106278;1283;75247;-81
2023/02/27 10:40:11;;;;;;;;;;;;;;;20.49;37.92;101134.02;106186;1281;60408;-81
2023/02/27 10:42:37;;;;;;;;;;;;;;;20.49;38.03;101138.48;106180;1282;61896;-81
2023/02/27 10:45:03;;;;;;;;;;;;;;;20.50;38.21;101145.09;106162;1283;60484;-81
2023/02/27 10:47:29;;;;;;;;;;;;;;;20.48;37.95;101146.27;106107;1282;62031;-81
2023/02/27 10:49:55;;;;;;;;;;;;;;;20.47;37.97;101141.02;106613;1282;60838;-81
2023/02/27 10:52:20;;;;;;;;;;;;;;;20.47;37.94;101135.08;106807;1282;60359;-81
2023/02/27 10:54:46;;;;;;;;;;;;;;;20.48;38.04;101130.92;106637;1281;60475;-81
2023/02/27 10:57:26;;;;;;;;;;;;;;;20.49;38.06;101139.05;106623;1283;60621;-81
2023/02/27 10:59:52;;;;;;;;;;;;;;;20.50;38.11;101141.67;106700;1282;76236;-81
2023/02/27 11:02:19;;;;;;;;;;;;;;;20.50;38.05;101133.95;106385;1282;61285;-82
2023/02/27 11:04:52;;;;;;;;;;;;;;;20.43;37.94;101140.49;106395;1282;61483;-82
2023/02/27 11:07:35;;;;;;;;;;;;;;;20.22;37.73;101138.22;106573;1282;73505;-82
2023/02/27 11:10:15;;;;;;;;;;;;;;;20.05;37.73;101140.01;106443;1286;77466;-82
2023/02/27 11:12:42;;;;;;;;;;;;;;;20.02;37.97;101136.63;106733;1283;60157;-82
2023/02/27 11:15:14;;;;;;;;;;;;;;;20.04;38.03;101134.17;106452;1282;60135;-82
2023/02/27 11:17:40;;;;;;;;;;;;;;;20.05;38.08;101132.65;106590;1282;73655;-82
2023/02/27 11:20:26;;;;;;;;;;;;;;;20.08;38.29;101130.89;106678;1282;60214;-82
2023/02/27 11:23:00;;;;;;;;;;;;;;;20.10;38.30;101134.48;106765;1282;61166;-82
2023/02/27 11:25:26;;;;;;;;;;;;;;;20.12;38.08;101144.40;106631;1287;61579;-82
2023/02/27 11:27:51;;;;;;;;;;;;;;;20.13;38.21;101145.08;106711;1282;60642;-82
2023/02/27 11:30:30;;;;;;;;;;;;;;;20.13;37.85;101150.07;106579;1283;60196;-82
2023/02/27 11:32:56;;;;;;;;;;;;;;;20.14;38.26;101154.98;106661;1282;60817;-82
2023/02/27 11:35:31;;;;;;;;;;;;;;;20.17;38.17;101153.36;106270;1282;63383;-81
2023/02/27 11:38:01;;;;;;;;;;;;;;;20.19;38.26;101155.73;106095;1282;73375;-81
2023/02/27 11:40:49;;;;;;;;;;;;;;;20.20;38.23;101161.95;106158;1282;75577;-81
2023/02/27 11:43:19;;;;;;;;;;;;;;;20.19;38.29;101159.84;106099;1282;61847;-81
2023/02/27 11:45:48;;;;;;;;;;;;;;;20.19;38.18;101164.11;106137;1282;62254;-82
2023/02/27 11:48:43;;;;;;;;;;;;;;;20.20;38.11;101166.04;106122;1287;72462;-82
2023/02/27 11:51:27;;;;;;;;;;;;;;;20.19;38.16;101165.02;105994;1282;75446;-81
2023/02/27 11:54:05;;;;;;;;;;;;;;;20.19;37.99;101168.44;105983;1282;60712;-81
2023/02/27 11:56:51;;;;;;;;;;;;;;;20.19;37.98;101170.58;106284;1282;61790;-82
2023/02/27 11:59:22;;;;;;;;;;;;;;;20.20;37.86;101177.70;106277;1282;72678;-81
2023/02/27 12:01:49;;;;;;;;;;;;;;;20.18;37.93;101181.73;106022;1285;75374;-81
2023/02/27 12:04:34;;;;;;;;;;;;;;;20.07;37.67;101178.66;106095;1281;60620;-82
2023/02/27 12:07:05;;;;;;;;;;;;;;;19.83;37.60;101175.79;106267;1282;61892;-82
2023/02/27 12:09:33;;;;;;;;;;;;;;;19.71;37.72;101176.14;106219;1282;73519;-82
2023/02/27 12:11:59;;;;;;;;;;;;;;;19.71;37.96;101172.20;106298;1282;75000;-83
2023/02/27 12:14:24;;;;;;;;;;;;;;;19.73;37.78;101171.88;106255;1282;60430;-82
2023/02/27 12:16:58;;;;;;;;;;;;;;;19.74;37.78;101169.85;106231;1282;60347;-81
2023/02/27 12:19:25;;;;;;;;;;;;;;;19.70;37.79;101165.65;106161;1283;73198;-82
2023/02/27 12:22:14;;;;;;;;;;;;;;;19.69;37.81;101165.18;106134;1282;75031;-83
2023/02/27 12:24:39;;;;;;;;;;;;;;;19.69;37.87;101168.34;106232;1282;62052;-82
2023/02/27 12:27:08;;;;;;;;;;;;;;;19.73;37.78;101173.15;106207;1282;60232;-82
2023/02/27 12:29:34;;;;;;;;;;;;;;;19.78;37.86;101179.80;106278;1282;73540;-81
2023/02/27 12:32:13;;;;;;;;;;;;;;;19.84;37.99;101185.71;106198;1282;76806;-82
2023/02/27 12:34:39;;;;;;;;;;;;;;;19.90;37.73;101188.23;106301;1282;62091;-83